San Bernardino, Switzerland
Current Conditions -  °F | °C
As of 5:20 PM on Thursday 18 Dec 2014 (Local Time) from LSZS Reporting Station
Light Snow Light Snow  
Wind Chill: 34°   Ceiling: 3000
Heat Index: 34°   Visibility: 4mi
Dew Point: 34°   Wind: 1mph
Humidity: 100%   Direction: NA
Pressure: 30.15"   Gusts: NA
Location:  46.47°N, 9.18°E
Report Text: LSZS 181620Z VRB01KT 6000 -RASN OVC030 01/01 Q1021 R03/29////
Loading
Personal Weather Stations






























Interactive Weather Map New forecast layout! Learn more

10-Day Weather Forecast

Advertisements
Track Severe Weather on mobile